Time;durP1;ratioP1;P1;durP2;ratioP2;P2;SDS_P1;SDS_P2;PMS_P1;PMS_P2;Temp;Humidity;BMP_temperature;BMP_pressure;BME280_temperature;BME280_humidity;BME280_pressure;Samples;Min_cycle;Max_cycle;Signal;HPM_P1;HPM_P2
2023/05/04 00:00:49;;;;;;;13.52;9.57;;;10.90;92.20;;;;;;5016394;28;20021;-88
2023/05/04 00:03:15;;;;;;;11.95;8.80;;;10.80;92.40;;;;;;5000452;28;20117;-90
2023/05/04 00:05:41;;;;;;;12.75;9.25;;;10.70;92.40;;;;;;5035944;28;20057;-88
2023/05/04 00:08:07;;;;;;;12.60;8.82;;;10.70;92.60;;;;;;5036414;28;20034;-88
2023/05/04 00:10:33;;;;;;;11.25;9.00;;;10.70;92.80;;;;;;5037025;28;20034;-87
2023/05/04 00:12:59;;;;;;;11.38;8.32;;;10.60;92.90;;;;;;5036177;28;20359;-88
2023/05/04 00:15:26;;;;;;;10.52;8.73;;;10.60;92.90;;;;;;5032434;28;20056;-89
2023/05/04 00:17:52;;;;;;;18.27;10.05;;;10.60;93.00;;;;;;5016889;28;20038;-89
2023/05/04 00:20:17;;;;;;;12.20;9.30;;;10.50;93.20;;;;;;5015445;28;20037;-89
2023/05/04 00:22:46;;;;;;;13.07;9.15;;;10.50;93.40;;;;;;5036143;28;20021;-88
2023/05/04 00:25:14;;;;;;;10.73;9.25;;;10.40;93.50;;;;;;5036744;28;20021;-87
2023/05/04 00:27:39;;;;;;;9.50;8.52;;;10.40;93.60;;;;;;5036972;28;20029;-88
2023/05/04 00:30:06;;;;;;;10.75;8.65;;;10.40;93.70;;;;;;5037998;28;20052;-86
2023/05/04 00:32:32;;;;;;;11.68;8.43;;;10.30;93.90;;;;;;5039846;28;20041;-85
2023/05/04 00:34:59;;;;;;;14.85;8.45;;;10.30;94.00;;;;;;5039368;28;20083;-86
2023/05/04 00:37:24;;;;;;;10.30;8.48;;;10.20;94.10;;;;;;5039142;28;20025;-88
2023/05/04 00:39:52;;;;;;;9.32;8.32;;;10.30;94.10;;;;;;5028768;28;20030;-86
2023/05/04 00:42:18;;;;;;;12.70;9.65;;;10.30;94.30;;;;;;5035958;28;20068;-88
2023/05/04 00:44:50;;;;;;;11.35;8.35;;;10.30;94.30;;;;;;5054145;28;20085;-87
2023/05/04 00:47:20;;;;;;;10.40;8.55;;;10.20;94.40;;;;;;5037260;28;20064;-88
2023/05/04 00:49:50;;;;;;;12.00;8.85;;;10.20;94.50;;;;;;5048274;28;20477;-86
2023/05/04 00:52:16;;;;;;;13.55;9.38;;;10.20;94.50;;;;;;5046386;28;20041;-86
2023/05/04 00:54:45;;;;;;;11.27;9.20;;;10.20;94.50;;;;;;5022206;28;20033;-88
2023/05/04 00:57:15;;;;;;;11.40;8.40;;;10.10;94.70;;;;;;5035847;28;20469;-87
2023/05/04 00:59:44;;;;;;;10.83;8.93;;;10.10;94.70;;;;;;5035396;28;20076;-87
2023/05/04 01:02:13;;;;;;;10.38;8.55;;;10.20;94.70;;;;;;5035091;28;20021;-87
2023/05/04 01:04:41;;;;;;;9.82;7.53;;;10.10;94.80;;;;;;5036204;28;20034;-87
2023/05/04 01:07:14;;;;;;;9.88;7.88;;;10.20;94.80;;;;;;5018788;28;20041;-89
2023/05/04 01:09:51;;;;;;;11.85;8.23;;;10.20;94.80;;;;;;5035454;28;20067;-84
2023/05/04 01:12:24;;;;;;;11.02;8.13;;;10.20;94.80;;;;;;5035202;28;20024;-87
2023/05/04 01:14:52;;;;;;;10.02;8.27;;;10.10;94.80;;;;;;5035040;28;20461;-87
2023/05/04 01:17:21;;;;;;;10.55;8.43;;;10.20;94.90;;;;;;5034792;28;20029;-86
2023/05/04 01:19:52;;;;;;;9.20;8.10;;;10.10;95.00;;;;;;5018300;28;20033;-87
2023/05/04 01:22:18;;;;;;;10.05;8.07;;;10.10;95.10;;;;;;5017750;28;20040;-88
2023/05/04 01:24:44;;;;;;;10.63;7.80;;;10.10;95.40;;;;;;5014856;28;20022;-89
2023/05/04 01:27:30;;;;;;;10.27;8.32;;;10.10;95.10;;;;;;5015238;28;20525;-89
2023/05/04 01:30:02;;;;;;;11.30;8.70;;;10.10;95.20;;;;;;5026015;28;20045;-89
2023/05/04 01:32:29;;;;;;;10.57;8.25;;;10.10;95.10;;;;;;5034793;28;20091;-88
2023/05/04 01:34:55;;;;;;;11.45;8.70;;;10.10;95.20;;;;;;5017654;28;20059;-88
2023/05/04 01:37:21;;;;;;;10.63;7.97;;;10.00;95.30;;;;;;5034721;28;20087;-87
2023/05/04 01:39:47;;;;;;;9.82;7.85;;;10.00;95.30;;;;;;5017434;28;20026;-87
2023/05/04 01:42:12;;;;;;;10.25;8.32;;;10.00;95.60;;;;;;5015045;28;20053;-87
2023/05/04 01:44:39;;;;;;;10.45;8.68;;;10.00;95.40;;;;;;5030899;28;20026;-87
2023/05/04 01:47:05;;;;;;;12.63;8.38;;;10.00;95.40;;;;;;5014429;28;20080;-89
2023/05/04 01:49:31;;;;;;;10.85;9.27;;;10.00;95.50;;;;;;5015808;28;20057;-88
2023/05/04 01:51:59;;;;;;;10.75;8.77;;;10.00;95.50;;;;;;5030196;28;20058;-87
2023/05/04 01:54:25;;;;;;;11.05;8.95;;;10.00;95.40;;;;;;5034242;28;20025;-88
2023/05/04 01:56:51;;;;;;;9.40;7.93;;;9.90;95.50;;;;;;5008061;28;20095;-90
2023/05/04 01:59:19;;;;;;;9.80;8.07;;;9.90;95.60;;;;;;5031019;28;20034;-87
2023/05/04 02:01:45;;;;;;;10.52;8.35;;;9.90;95.60;;;;;;5009231;28;20128;-88
2023/05/04 02:04:14;;;;;;;11.95;9.10;;;9.90;95.60;;;;;;5018037;28;20449;-86
2023/05/04 02:06:40;;;;;;;11.40;8.90;;;9.90;95.70;;;;;;5018071;28;20034;-87
2023/05/04 02:09:06;;;;;;;12.55;9.02;;;9.80;95.70;;;;;;5035938;28;20049;-88
2023/05/04 02:11:32;;;;;;;12.27;8.90;;;9.80;95.90;;;;;;5044342;28;20033;-89
2023/05/04 02:13:58;;;;;;;16.08;8.93;;;9.70;96.00;;;;;;5057154;28;20032;-87
2023/05/04 02:16:27;;;;;;;10.73;8.88;;;9.70;96.00;;;;;;5057876;28;20013;-87
2023/05/04 02:18:52;;;;;;;12.57;8.98;;;9.70;96.20;;;;;;5056950;28;20014;-86
2023/05/04 02:21:18;;;;;;;11.27;8.00;;;9.60;96.30;;;;;;5027092;28;20040;-87
2023/05/04 02:23:44;;;;;;;12.55;8.48;;;9.60;96.30;;;;;;5033000;28;20116;-88
2023/05/04 02:26:10;;;;;;;8.95;7.95;;;9.60;96.30;;;;;;5031011;28;20079;-89
2023/05/04 02:28:36;;;;;;;12.10;8.55;;;9.60;96.30;;;;;;5025149;28;20050;-88
2023/05/04 02:31:01;;;;;;;9.15;8.05;;;9.70;96.30;;;;;;5017864;28;20026;-88
2023/05/04 02:33:27;;;;;;;11.48;8.70;;;9.60;96.30;;;;;;5029841;28;20037;-89
2023/05/04 02:35:58;;;;;;;10.35;8.95;;;9.70;96.30;;;;;;5028499;28;20075;-88
2023/05/04 02:38:25;;;;;;;;;;;9.60;96.50;;;;;;5014232;28;20030;-88
2023/05/04 02:40:53;;;;;;;12.80;8.85;;;9.60;96.50;;;;;;5020822;28;19948;-89
2023/05/04 02:43:19;;;;;;;12.30;8.60;;;9.50;96.50;;;;;;5015227;28;20029;-88
2023/05/04 02:45:45;;;;;;;11.50;9.18;;;9.50;96.70;;;;;;5034561;28;20028;-87
2023/05/04 02:48:14;;;;;;;10.23;7.90;;;9.50;96.70;;;;;;5032952;28;20029;-87
2023/05/04 02:50:39;;;;;;;11.93;8.40;;;9.50;96.70;;;;;;5032202;28;20112;-88
2023/05/04 02:53:08;;;;;;;11.02;8.07;;;9.40;96.80;;;;;;5014586;28;20430;-88
2023/05/04 02:55:33;;;;;;;11.07;8.35;;;9.40;96.90;;;;;;5014408;28;20450;-88
2023/05/04 02:58:00;;;;;;;12.07;8.00;;;9.40;96.90;;;;;;5013803;28;20034;-87
2023/05/04 03:00:25;;;;;;;11.63;8.35;;;9.40;96.90;;;;;;5005917;28;20116;-88
2023/05/04 03:02:51;;;;;;;10.25;7.72;;;9.50;96.90;;;;;;5017241;28;20125;-88
2023/05/04 03:05:17;;;;;;;10.68;8.52;;;9.50;96.90;;;;;;5016832;28;20029;-88
2023/05/04 03:07:42;;;;;;;12.77;8.77;;;9.40;96.90;;;;;;5032789;28;20030;-89
2023/05/04 03:10:09;;;;;;;9.90;7.85;;;9.50;97.00;;;;;;5033088;28;20021;-87
2023/05/04 03:12:34;;;;;;;13.57;8.63;;;9.50;97.00;;;;;;5017267;28;20025;-88
2023/05/04 03:15:00;;;;;;;13.75;8.85;;;9.40;97.00;;;;;;5034229;28;20453;-89
2023/05/04 03:17:26;;;;;;;12.73;8.45;;;9.40;97.00;;;;;;5033104;28;20034;-89
2023/05/04 03:19:52;;;;;;;9.40;7.72;;;9.30;97.00;;;;;;5033408;28;20022;-87
2023/05/04 03:22:19;;;;;;;11.73;9.23;;;9.40;97.10;;;;;;5033719;28;20512;-87
2023/05/04 03:24:45;;;;;;;12.32;8.27;;;9.30;97.10;;;;;;5020145;28;20022;-87
2023/05/04 03:27:16;;;;;;;9.75;8.00;;;9.30;97.20;;;;;;5036459;28;20041;-88
2023/05/04 03:29:41;;;;;;;;;;;9.20;97.20;;;;;;5016500;28;20486;-88
2023/05/04 03:32:07;;;;;;;12.63;9.05;;;9.20;97.30;;;;;;5033221;28;19932;-87
2023/05/04 03:34:33;;;;;;;10.43;8.40;;;9.20;97.30;;;;;;5036773;28;20037;-89
2023/05/04 03:36:59;;;;;;;10.68;8.68;;;9.20;97.40;;;;;;5024908;28;20123;-86
2023/05/04 03:39:24;;;;;;;14.90;9.40;;;9.20;97.50;;;;;;5037744;28;20454;-88
2023/05/04 03:41:53;;;;;;;12.30;8.82;;;9.10;97.50;;;;;;5053824;28;20021;-90
2023/05/04 03:44:19;;;;;;;11.93;8.60;;;9.10;97.60;;;;;;5043857;28;20025;-86
2023/05/04 03:49:49;;;;;;;14.27;9.60;;;9.10;97.70;;;;;;5049144;28;20052;-88
2023/05/04 03:52:15;;;;;;;10.05;8.38;;;9.00;97.70;;;;;;5021948;28;20183;-85
2023/05/04 03:54:41;;;;;;;14.48;8.88;;;9.00;97.80;;;;;;5037292;28;20057;-87
2023/05/04 03:57:06;;;;;;;12.43;9.20;;;9.00;97.90;;;;;;5015856;28;20030;-87
2023/05/04 03:59:32;;;;;;;13.52;8.77;;;8.90;98.00;;;;;;5024325;28;20032;-88
2023/05/04 04:01:59;;;;;;;12.02;9.10;;;8.90;98.10;;;;;;5018090;28;20036;-88
2023/05/04 04:04:25;;;;;;;10.27;9.07;;;8.90;98.10;;;;;;5032835;28;20061;-87
2023/05/04 04:06:50;;;;;;;10.40;8.52;;;8.90;98.10;;;;;;5016357;28;20046;-88
2023/05/04 04:09:16;;;;;;;11.30;8.52;;;9.00;98.10;;;;;;5032819;28;20022;-89
2023/05/04 04:11:45;;;;;;;10.38;8.70;;;9.00;98.10;;;;;;5036189;28;20064;-87
2023/05/04 04:14:11;;;;;;;12.23;9.70;;;9.00;98.10;;;;;;5035986;28;20025;-88
2023/05/04 04:16:37;;;;;;;10.35;8.23;;;9.00;98.00;;;;;;5036253;28;20029;-89
2023/05/04 04:19:02;;;;;;;13.50;9.85;;;9.00;98.00;;;;;;5036196;28;20056;-89
2023/05/04 04:21:28;;;;;;;13.95;8.95;;;9.00;98.10;;;;;;5019894;28;20029;-88
2023/05/04 04:23:54;;;;;;;12.23;8.88;;;8.90;98.10;;;;;;5037659;28;20017;-90
2023/05/04 04:26:22;;;;;;;11.02;9.00;;;8.90;98.20;;;;;;5037564;28;20108;-87
2023/05/04 04:28:50;;;;;;;11.40;8.88;;;8.90;98.20;;;;;;5035491;28;20038;-87
2023/05/04 04:31:19;;;;;;;12.70;9.23;;;8.90;98.20;;;;;;5024846;28;20026;-88
2023/05/04 04:33:51;;;;;;;11.93;9.35;;;8.90;98.20;;;;;;5016298;28;20044;-87
2023/05/04 04:36:17;;;;;;;12.55;9.57;;;8.90;98.20;;;;;;5015182;28;20022;-88
2023/05/04 04:38:44;;;;;;;11.82;9.05;;;8.90;98.20;;;;;;5016700;28;20026;-89
2023/05/04 04:41:09;;;;;;;12.00;9.25;;;8.90;98.30;;;;;;5019344;28;20026;-91
2023/05/04 04:43:35;;;;;;;12.50;9.25;;;8.90;98.40;;;;;;5032691;28;20087;-91
2023/05/04 04:46:04;;;;;;;11.23;9.23;;;8.90;98.40;;;;;;5032879;28;20060;-90
2023/05/04 04:48:38;;;;;;;10.25;8.32;;;8.90;98.40;;;;;;5031217;28;20029;-89
2023/05/04 04:51:16;;;;;;;12.85;9.50;;;9.00;98.40;;;;;;5030420;28;20025;-91
2023/05/04 04:53:45;;;;;;;10.65;9.13;;;9.00;98.40;;;;;;5029072;28;20078;-90
2023/05/04 04:56:17;;;;;;;12.10;9.98;;;9.00;98.40;;;;;;5027054;28;20461;-90
2023/05/04 04:58:50;;;;;;;11.02;9.23;;;9.00;98.50;;;;;;5029108;28;20083;-90
2023/05/04 05:01:18;;;;;;;12.77;9.65;;;9.00;98.50;;;;;;5024012;28;20130;-91
2023/05/04 05:03:44;;;;;;;13.10;8.85;;;9.00;98.50;;;;;;5017223;28;20450;-90
2023/05/04 05:06:11;;;;;;;12.85;9.15;;;9.10;98.50;;;;;;5013749;28;20025;-90
2023/05/04 05:08:37;;;;;;;10.80;9.20;;;9.10;98.50;;;;;;5029272;28;20054;-91
2023/05/04 05:11:03;;;;;;;10.57;8.43;;;9.20;98.50;;;;;;5046633;28;20034;-88
2023/05/04 05:13:32;;;;;;;12.38;9.02;;;9.20;98.40;;;;;;5057694;28;20006;-90
2023/05/04 05:16:00;;;;;;;15.20;9.35;;;9.20;98.50;;;;;;5058241;28;20098;-90
2023/05/04 05:18:29;;;;;;;13.10;8.73;;;9.20;98.50;;;;;;5055741;28;20428;-89
2023/05/04 05:21:00;;;;;;;13.65;9.05;;;9.20;98.50;;;;;;5039322;28;20370;-91
2023/05/04 05:23:30;;;;;;;10.38;8.55;;;9.20;98.40;;;;;;5035507;28;20041;-90
2023/05/04 05:25:59;;;;;;;11.82;9.20;;;9.30;98.40;;;;;;5035427;28;20036;-89
2023/05/04 05:28:25;;;;;;;13.27;9.07;;;9.30;98.40;;;;;;5030692;28;20102;-90
2023/05/04 05:30:53;;;;;;;12.27;9.07;;;9.40;98.30;;;;;;5028737;28;20481;-89
2023/05/04 05:33:29;;;;;;;;;;;;;;;;;;;;;
2023/05/04 05:36:04;;;;;;;10.90;8.32;;;9.30;98.20;;;;;;5028263;28;20029;-89
2023/05/04 05:38:35;;;;;;;12.10;8.32;;;9.40;98.30;;;;;;5016366;28;20033;-89
2023/05/04 05:41:06;;;;;;;14.85;9.48;;;9.40;98.20;;;;;;5032232;28;20482;-91
2023/05/04 05:43:46;;;;;;;10.48;8.30;;;9.40;98.10;;;;;;5017860;28;20389;-88
2023/05/04 05:46:27;;;;;;;14.80;9.77;;;9.50;98.10;;;;;;5034180;28;20428;-90
2023/05/04 05:48:53;;;;;;;14.07;9.60;;;9.40;98.00;;;;;;5003056;28;20037;-91
2023/05/04 05:51:19;;;;;;;12.73;9.90;;;9.40;98.00;;;;;;5030885;28;20028;-90
2023/05/04 05:53:45;;;;;;;12.05;9.40;;;9.40;98.10;;;;;;5014844;28;20457;-89
2023/05/04 05:56:14;;;;;;;14.18;9.18;;;9.30;98.10;;;;;;5014335;28;20022;-89
2023/05/04 05:58:44;;;;;;;11.15;8.57;;;9.30;98.20;;;;;;5014213;28;20458;-89
2023/05/04 06:01:23;;;;;;;;;;;;;;;;;;;;;
2023/05/04 06:03:49;;;;;;;13.52;9.75;;;9.40;98.10;;;;;;5016073;28;20026;-88
2023/05/04 06:06:15;;;;;;;11.23;9.25;;;9.40;98.10;;;;;;5031312;28;20625;-92
2023/05/04 06:08:44;;;;;;;12.57;9.30;;;9.30;98.10;;;;;;5034679;28;20076;-90
2023/05/04 06:11:13;;;;;;;14.48;9.73;;;9.40;98.20;;;;;;5034503;28;20473;-91
2023/05/04 06:13:49;;;;;;;12.05;8.52;;;9.50;98.30;;;;;;5034046;28;20476;-90
2023/05/04 06:16:18;;;;;;;16.00;10.68;;;9.50;98.20;;;;;;5035714;28;20021;-90
2023/05/04 06:18:44;;;;;;;17.48;10.45;;;9.60;98.20;;;;;;5025846;28;20064;-90
2023/05/04 06:21:13;;;;;;;12.35;9.05;;;9.60;98.10;;;;;;5014345;28;20033;-89
2023/05/04 06:23:44;;;;;;;15.15;9.57;;;9.60;98.20;;;;;;5022084;28;20082;-90
2023/05/04 06:26:18;;;;;;;12.15;8.82;;;9.70;98.20;;;;;;5034385;28;20033;-89
2023/05/04 06:28:48;;;;;;;12.75;8.80;;;9.70;98.10;;;;;;5014418;28;20431;-93
2023/05/04 06:31:27;;;;;;;11.50;8.88;;;9.70;98.10;;;;;;5015157;28;20112;-91
2023/05/04 06:33:53;;;;;;;14.05;9.50;;;9.80;98.00;;;;;;5015058;28;20038;-93
2023/05/04 06:36:27;;;;;;;14.93;9.73;;;9.70;98.00;;;;;;5017450;28;20113;-91
2023/05/04 06:38:54;;;;;;;11.63;8.90;;;9.80;98.20;;;;;;5044176;28;20040;-91
2023/05/04 06:41:20;;;;;;;10.20;8.75;;;9.80;98.30;;;;;;5056617;28;20022;-89
2023/05/04 06:43:46;;;;;;;17.67;9.68;;;9.90;98.30;;;;;;5058097;28;20078;-89
2023/05/04 06:46:15;;;;;;;13.13;9.20;;;10.00;98.20;;;;;;5042023;28;20091;-89
2023/05/04 06:48:50;;;;;;;11.98;8.73;;;10.10;98.10;;;;;;5051257;28;20057;-90
2023/05/04 06:51:19;;;;;;;11.15;8.70;;;10.30;98.20;;;;;;5037315;28;20123;-91
2023/05/04 06:53:46;;;;;;;11.77;9.32;;;10.30;98.00;;;;;;5034905;28;20036;-89
2023/05/04 06:56:19;;;;;;;12.15;9.30;;;10.40;97.90;;;;;;5035533;28;20018;-88
2023/05/04 06:58:44;;;;;;;10.15;8.93;;;10.50;98.00;;;;;;5002319;28;20540;-89
2023/05/04 07:01:12;;;;;;;11.20;8.98;;;10.60;97.80;;;;;;5029112;28;20037;-88
2023/05/04 07:03:38;;;;;;;12.25;8.25;;;10.60;97.80;;;;;;5022190;28;20036;-91
2023/05/04 07:06:11;;;;;;;11.75;8.05;;;10.70;97.80;;;;;;5039145;28;20018;-91
2023/05/04 07:08:37;;;;;;;12.27;8.65;;;10.80;97.90;;;;;;5038610;28;20035;-90
2023/05/04 07:11:04;;;;;;;15.27;10.10;;;10.80;97.70;;;;;;5038627;28;20475;-91
2023/05/04 07:13:30;;;;;;;10.35;9.10;;;10.90;97.50;;;;;;5039618;28;20105;-92
2023/05/04 07:15:56;;;;;;;10.85;9.00;;;10.90;97.60;;;;;;5039270;28;20496;-92
2023/05/04 07:18:22;;;;;;;11.23;9.05;;;10.90;97.60;;;;;;5039322;28;20021;-90
2023/05/04 07:20:51;;;;;;;12.07;9.05;;;11.00;97.70;;;;;;5040951;28;20029;-90
2023/05/04 07:23:21;;;;;;;12.20;9.15;;;11.00;97.70;;;;;;5037481;28;20021;-90
2023/05/04 07:25:49;;;;;;;12.37;9.50;;;11.10;97.70;;;;;;5038424;28;20025;-91
2023/05/04 07:28:15;;;;;;;10.85;8.85;;;11.20;97.60;;;;;;5020841;28;20124;-90
2023/05/04 07:30:41;;;;;;;13.13;9.52;;;11.20;97.60;;;;;;5036673;28;20063;-90
2023/05/04 07:33:10;;;;;;;14.57;8.93;;;11.30;97.60;;;;;;5020827;28;20029;-91
2023/05/04 07:35:38;;;;;;;15.48;8.93;;;11.30;97.50;;;;;;5037427;28;20036;-89
2023/05/04 07:38:13;;;;;;;13.85;9.40;;;11.40;97.50;;;;;;5037107;28;20076;-91
2023/05/04 07:40:39;;;;;;;14.75;9.02;;;11.40;97.30;;;;;;5021600;28;20490;-92
2023/05/04 07:43:05;;;;;;;11.95;8.55;;;11.40;97.40;;;;;;5037002;28;20026;-89
2023/05/04 07:45:33;;;;;;;12.73;8.82;;;11.50;97.40;;;;;;5034315;28;20030;-89
2023/05/04 07:48:01;;;;;;;11.43;8.48;;;11.50;97.30;;;;;;5037541;28;20061;-92
2023/05/04 07:50:38;;;;;;;11.60;8.77;;;11.60;97.30;;;;;;5021283;28;20038;-91
2023/05/04 07:53:09;;;;;;;14.35;8.88;;;11.70;97.40;;;;;;5021861;28;20026;-90
2023/05/04 07:55:35;;;;;;;;;;;11.80;97.60;;;;;;5037641;28;20116;-92
2023/05/04 07:58:12;;;;;;;11.18;7.78;;;11.80;97.20;;;;;;5037414;28;19944;-90
2023/05/04 08:00:43;;;;;;;11.10;8.70;;;11.90;97.20;;;;;;5022633;28;20018;-92
2023/05/04 08:03:09;;;;;;;11.45;7.72;;;12.00;97.20;;;;;;5037447;28;20021;-92
2023/05/04 08:05:53;;;;;;;;;;;;;;;;;;;;;
2023/05/04 08:08:21;;;;;;;11.15;7.78;;;12.20;97.10;;;;;;5038998;28;20042;-92
2023/05/04 08:10:59;;;;;;;;;;;;;;;;;;;;;
2023/05/04 08:13:30;;;;;;;8.88;7.55;;;12.40;96.50;;;;;;5047053;28;20073;-91
2023/05/04 08:16:00;;;;;;;11.23;7.75;;;12.50;96.30;;;;;;5042932;28;20018;-93
2023/05/04 08:18:30;;;;;;;12.10;7.32;;;12.60;96.20;;;;;;5059839;28;20012;-92
2023/05/04 08:21:05;;;;;;;10.57;8.00;;;12.70;96.20;;;;;;5059424;28;20076;-90
2023/05/04 08:23:33;;;;;;;9.63;7.15;;;12.80;96.20;;;;;;5050502;28;20030;-92
2023/05/04 08:26:14;;;;;;;10.27;7.25;;;12.90;95.90;;;;;;5023906;28;20064;-91
2023/05/04 08:28:54;;;;;;;;;;;;;;;;;;;;;
2023/05/04 08:31:25;;;;;;;11.18;8.15;;;13.10;95.70;;;;;;5018028;28;20820;-90
2023/05/04 08:33:50;;;;;;;11.48;7.10;;;13.20;95.50;;;;;;5032046;28;20037;-94
2023/05/04 08:36:19;;;;;;;9.48;7.28;;;13.20;95.20;;;;;;5036434;28;20025;-92
2023/05/04 08:38:47;;;;;;;10.00;7.80;;;13.30;95.10;;;;;;5034710;28;20109;-93
2023/05/04 08:41:13;;;;;;;8.35;6.25;;;13.40;95.00;;;;;;5036263;28;20063;-92
2023/05/04 08:43:45;;;;;;;14.00;7.10;;;13.40;94.90;;;;;;5019773;28;20036;-90
2023/05/04 08:46:29;;;;;;;8.80;6.97;;;13.60;94.80;;;;;;5035537;28;20083;-90
2023/05/04 08:49:00;;;;;;;7.20;5.90;;;13.60;95.00;;;;;;5036058;28;20041;-91
2023/05/04 08:51:27;;;;;;;9.18;7.05;;;13.70;94.80;;;;;;5037487;28;20030;-93
2023/05/04 08:53:56;;;;;;;8.68;6.82;;;13.90;94.80;;;;;;5036776;28;20022;-92
2023/05/04 08:56:42;;;;;;;8.70;7.13;;;14.00;94.60;;;;;;5035553;28;20025;-91
2023/05/04 08:59:23;;;;;;;8.32;6.60;;;14.10;94.60;;;;;;5035878;28;20116;-91
2023/05/04 09:01:55;;;;;;;8.27;6.30;;;14.20;94.50;;;;;;5035254;28;20057;-92
2023/05/04 09:04:22;;;;;;;11.25;6.53;;;14.40;94.70;;;;;;5019745;28;20098;-90
2023/05/04 09:06:51;;;;;;;8.52;5.93;;;14.50;94.00;;;;;;5032704;28;20025;-90
2023/05/04 09:09:22;;;;;;;11.50;6.82;;;14.50;93.60;;;;;;5024369;28;20098;-92
2023/05/04 09:11:51;;;;;;;6.40;5.60;;;14.70;93.60;;;;;;5016378;28;20021;-93
2023/05/04 09:14:20;;;;;;;11.30;6.90;;;14.70;93.80;;;;;;5022131;28;20035;-89
2023/05/04 09:16:56;;;;;;;7.20;5.80;;;14.80;93.50;;;;;;5015842;28;20030;-92
2023/05/04 09:19:25;;;;;;;10.88;6.70;;;14.90;93.50;;;;;;5015701;28;20025;-92
2023/05/04 09:21:53;;;;;;;12.55;6.93;;;15.00;93.50;;;;;;5020624;28;20071;-93
2023/05/04 09:24:26;;;;;;;9.52;6.95;;;15.10;93.20;;;;;;5035528;28;20027;-92
2023/05/04 09:27:10;;;;;;;9.63;5.80;;;15.10;93.30;;;;;;5035239;28;20021;-91
2023/05/04 09:30:00;;;;;;;11.93;6.75;;;15.20;93.70;;;;;;5035062;28;20045;-90
2023/05/04 09:32:27;;;;;;;10.85;6.78;;;15.30;93.50;;;;;;5031655;28;20128;-92
2023/05/04 09:34:56;;;;;;;8.57;6.47;;;15.40;93.30;;;;;;5018560;28;20052;-94
2023/05/04 09:37:25;;;;;;;8.70;6.85;;;15.50;93.10;;;;;;5036134;28;20090;-93
2023/05/04 09:39:58;;;;;;;10.88;6.93;;;15.50;93.00;;;;;;5033783;28;20018;-91
2023/05/04 09:42:25;;;;;;;9.57;6.72;;;15.60;93.00;;;;;;5024147;28;20059;-92
2023/05/04 09:45:05;;;;;;;9.65;7.05;;;15.60;92.90;;;;;;5031567;28;20516;-92
2023/05/04 09:47:35;;;;;;;7.38;5.63;;;15.70;92.80;;;;;;5016478;28;20080;-92
2023/05/04 09:50:41;;;;;;;11.77;6.88;;;15.80;93.10;;;;;;5019048;28;20026;-93
2023/05/04 09:53:13;;;;;;;6.82;5.20;;;15.90;92.40;;;;;;5044633;28;20488;-90
2023/05/04 09:55:52;;;;;;;10.07;5.78;;;16.00;92.50;;;;;;5041084;28;20075;-89
2023/05/04 09:58:29;;;;;;;;;;;;;;;;;;;;;
2023/05/04 10:00:59;;;;;;;14.68;8.25;;;16.20;92.40;;;;;;5057242;28;20029;-89
2023/05/04 10:03:26;;;;;;;9.67;6.30;;;16.30;92.20;;;;;;5047454;28;20453;-87
2023/05/04 10:05:53;;;;;;;10.73;6.40;;;16.30;92.10;;;;;;5034215;28;20025;-88
2023/05/04 10:08:20;;;;;;;9.38;6.15;;;16.40;92.20;;;;;;5019039;28;20046;-87
2023/05/04 10:10:48;;;;;;;9.02;5.90;;;16.50;91.90;;;;;;5014643;28;20022;-90
2023/05/04 10:13:20;;;;;;;14.15;6.72;;;16.50;91.90;;;;;;5015624;28;20025;-92
2023/05/04 10:16:23;;;;;;;10.38;6.53;;;16.60;91.80;;;;;;5034569;28;20473;-90
2023/05/04 10:19:03;;;;;;;7.95;6.32;;;16.70;91.60;;;;;;5034610;28;20033;-87
2023/05/04 10:21:41;;;;;;;9.05;6.03;;;16.70;91.60;;;;;;5033857;28;20021;-92
2023/05/04 10:24:44;;;;;;;8.38;5.63;;;16.80;91.60;;;;;;5034108;28;20026;-90
2023/05/04 10:27:48;;;;;;;10.07;6.40;;;17.00;91.40;;;;;;5033687;28;20038;-91
2023/05/04 10:30:28;;;;;;;9.48;4.93;;;17.00;90.80;;;;;;5012010;28;20552;-92
2023/05/04 10:32:59;;;;;;;6.85;4.70;;;17.10;91.10;;;;;;5034499;28;20080;-90
2023/05/04 10:35:27;;;;;;;7.35;5.10;;;17.20;91.20;;;;;;5033623;28;20021;-90
2023/05/04 10:37:57;;;;;;;6.95;4.95;;;17.30;90.90;;;;;;5033870;28;20056;-91
2023/05/04 10:40:39;;;;;;;6.15;4.70;;;17.40;90.90;;;;;;5034023;28;20025;-91
2023/05/04 10:43:10;;;;;;;7.32;5.30;;;17.40;91.10;;;;;;5033866;28;20064;-92
2023/05/04 10:45:42;;;;;;;8.27;5.30;;;17.60;90.90;;;;;;5034917;28;20072;-92
2023/05/04 10:48:25;;;;;;;6.97;5.32;;;17.70;90.40;;;;;;5034561;28;20033;-92
2023/05/04 10:50:53;;;;;;;6.25;5.05;;;17.80;90.10;;;;;;5033944;28;20500;-92
2023/05/04 10:53:30;;;;;;;9.82;5.95;;;17.80;90.10;;;;;;5035082;28;20034;-92
2023/05/04 10:55:59;;;;;;;6.75;5.18;;;17.90;89.30;;;;;;5033665;28;20057;-91
2023/05/04 10:58:31;;;;;;;7.53;5.50;;;18.00;89.10;;;;;;5033541;28;20022;-90
2023/05/04 11:01:06;;;;;;;7.30;4.85;;;18.00;89.00;;;;;;5033529;28;20030;-90
2023/05/04 11:03:57;;;;;;;7.30;4.50;;;18.20;89.40;;;;;;5034339;28;20121;-91
2023/05/04 11:06:28;;;;;;;6.32;4.47;;;18.30;89.70;;;;;;5034320;28;20508;-90
2023/05/04 11:09:04;;;;;;;10.52;5.35;;;18.40;89.60;;;;;;5033893;28;20461;-91
2023/05/04 11:11:38;;;;;;;5.63;4.47;;;18.50;88.70;;;;;;5034378;28;20021;-90
2023/05/04 11:14:03;;;;;;;9.82;5.63;;;18.50;88.60;;;;;;5033577;28;20021;-92
2023/05/04 11:16:29;;;;;;;8.60;5.63;;;18.60;87.40;;;;;;5034726;28;20123;-90
2023/05/04 11:19:06;;;;;;;8.68;4.78;;;18.70;87.40;;;;;;5033415;28;20028;-90
2023/05/04 11:21:32;;;;;;;7.75;5.25;;;18.70;88.00;;;;;;5033848;28;20075;-90
2023/05/04 11:24:01;;;;;;;8.40;5.72;;;18.80;88.20;;;;;;5034419;28;20022;-91
2023/05/04 11:26:31;;;;;;;6.78;5.38;;;18.90;86.90;;;;;;5034021;28;20137;-91
2023/05/04 11:29:10;;;;;;;7.95;5.57;;;19.00;87.10;;;;;;5034046;28;20029;-91
2023/05/04 11:31:36;;;;;;;8.50;5.65;;;19.00;86.20;;;;;;5034072;28;20053;-92
2023/05/04 11:34:04;;;;;;;8.52;5.35;;;19.10;85.20;;;;;;5034400;28;20049;-92
2023/05/04 11:36:38;;;;;;;8.77;5.15;;;19.20;85.80;;;;;;5036180;28;20051;-91
2023/05/04 11:39:05;;;;;;;8.77;6.47;;;19.20;86.30;;;;;;5031388;28;20018;-89
2023/05/04 11:41:42;;;;;;;7.97;5.88;;;19.30;85.20;;;;;;5056528;28;20049;-90
2023/05/04 11:44:09;;;;;;;8.50;6.38;;;19.40;84.60;;;;;;5056458;28;20029;-89
2023/05/04 11:46:37;;;;;;;7.35;5.72;;;19.40;84.50;;;;;;5057653;28;20032;-90
2023/05/04 11:49:06;;;;;;;6.97;5.07;;;19.50;84.70;;;;;;5043355;28;20037;-89
2023/05/04 11:51:32;;;;;;;10.15;6.60;;;19.50;84.90;;;;;;5038275;28;20028;-91
2023/05/04 11:54:06;;;;;;;7.97;5.35;;;19.50;84.20;;;;;;5038407;28;20033;-91
2023/05/04 11:56:42;;;;;;;7.57;4.85;;;19.60;84.00;;;;;;5038421;28;20021;-90
2023/05/04 11:59:09;;;;;;;5.97;5.05;;;19.70;84.50;;;;;;5036682;28;20030;-91
2023/05/04 12:01:35;;;;;;;9.25;6.07;;;19.70;84.20;;;;;;5036868;28;20021;-90
2023/05/04 12:04:04;;;;;;;14.32;6.65;;;19.80;83.60;;;;;;5026128;28;20022;-91
2023/05/04 12:06:33;;;;;;;8.48;6.03;;;19.80;82.50;;;;;;5020038;28;20032;-91
2023/05/04 12:09:05;;;;;;;11.23;6.80;;;19.90;82.40;;;;;;5036794;28;20026;-91
2023/05/04 12:11:31;;;;;;;10.30;6.35;;;19.90;81.00;;;;;;5037559;28;20048;-91
2023/05/04 12:14:17;;;;;;;8.25;6.35;;;20.00;81.30;;;;;;5035627;28;20017;-90
2023/05/04 12:16:54;;;;;;;8.27;5.15;;;20.00;81.30;;;;;;5000647;28;20034;-90
2023/05/04 12:19:27;;;;;;;6.30;5.03;;;20.00;82.00;;;;;;5017163;28;20405;-89
2023/05/04 12:21:57;;;;;;;8.05;4.88;;;20.10;82.40;;;;;;5016315;28;20026;-90
2023/05/04 12:24:25;;;;;;;8.15;5.60;;;20.10;82.10;;;;;;5026463;28;20030;-90
2023/05/04 12:26:51;;;;;;;8.77;5.60;;;20.20;81.20;;;;;;5037224;28;20121;-91
2023/05/04 12:29:23;;;;;;;6.95;4.65;;;20.30;80.50;;;;;;5024312;28;20113;-90
2023/05/04 12:31:51;;;;;;;8.77;5.72;;;20.30;80.70;;;;;;5016589;28;20438;-89
2023/05/04 12:34:21;;;;;;;7.10;5.22;;;20.30;80.60;;;;;;5024022;28;20397;-90
2023/05/04 12:36:50;;;;;;;7.13;4.72;;;20.40;80.90;;;;;;5035555;28;20032;-89
2023/05/04 12:39:18;;;;;;;8.13;4.95;;;20.40;81.20;;;;;;5035700;28;20017;-89
2023/05/04 12:41:46;;;;;;;7.25;5.88;;;20.50;81.10;;;;;;5035587;28;20094;-91
2023/05/04 12:44:15;;;;;;;8.55;7.05;;;20.50;79.50;;;;;;5016035;28;20037;-90
2023/05/04 12:46:43;;;;;;;7.72;6.35;;;20.60;77.00;;;;;;5015947;28;20049;-90
2023/05/04 12:49:11;;;;;;;6.65;5.13;;;20.60;77.60;;;;;;5015627;28;20040;-89
2023/05/04 12:51:39;;;;;;;7.07;5.63;;;20.60;78.60;;;;;;5015731;28;20124;-91
2023/05/04 12:54:05;;;;;;;8.05;5.47;;;20.70;78.50;;;;;;5028821;28;20013;-90
2023/05/04 12:56:39;;;;;;;7.80;5.25;;;20.70;78.10;;;;;;5035001;28;20018;-90
2023/05/04 12:59:16;;;;;;;7.05;5.13;;;20.70;78.40;;;;;;5035423;28;20130;-91
2023/05/04 13:01:47;;;;;;;8.02;6.07;;;20.80;78.30;;;;;;5020594;28;20030;-89
2023/05/04 13:04:13;;;;;;;5.93;5.05;;;20.80;76.90;;;;;;5019014;28;20029;-88
2023/05/04 13:06:46;;;;;;;9.30;5.13;;;20.80;77.20;;;;;;5031937;28;20028;-89